Time;durP1;ratioP1;P1;durP2;ratioP2;P2;SDS_P1;SDS_P2;PMS_P1;PMS_P2;Temp;Humidity;BMP_temperature;BMP_pressure;BME280_temperature;BME280_humidity;BME280_pressure;Samples;Min_cycle;Max_cycle;Signal;HPM_P1;HPM_P2
2022/03/27 00:00:44;;;;;;;26.07;13.50;;;8.70;62.50;;;;;;5075715;28;20884;-74
2022/03/27 00:03:12;;;;;;;27.23;12.57;;;8.70;62.50;;;;;;5075970;28;20444;-73
2022/03/27 00:05:40;;;;;;;20.37;11.80;;;8.60;62.60;;;;;;5062492;28;20480;-74
2022/03/27 00:08:09;;;;;;;27.80;13.17;;;8.60;62.50;;;;;;5078143;28;20482;-72
2022/03/27 00:13:24;;;;;;;18.60;10.73;;;8.50;62.70;;;;;;5076808;28;20869;-73
2022/03/27 00:15:52;;;;;;;24.17;12.07;;;8.50;62.80;;;;;;5075573;28;20292;-73
2022/03/27 00:18:21;;;;;;;29.53;14.43;;;8.40;62.80;;;;;;5066020;28;20515;-73
2022/03/27 00:20:49;;;;;;;26.47;14.10;;;8.40;63.00;;;;;;5079027;28;20550;-74
2022/03/27 00:23:17;;;;;;;21.07;12.50;;;8.40;63.00;;;;;;5077122;28;20957;-73
2022/03/27 00:25:48;;;;;;;22.33;12.40;;;8.40;63.10;;;;;;5075557;28;20560;-73
2022/03/27 00:28:16;;;;;;;26.73;14.47;;;8.40;63.00;;;;;;5077320;28;20480;-74
2022/03/27 00:30:44;;;;;;;28.27;15.03;;;8.40;63.00;;;;;;5075074;28;21074;-73
2022/03/27 00:33:12;;;;;;;28.80;14.77;;;8.30;63.00;;;;;;5069775;28;20465;-73
2022/03/27 00:35:40;;;;;;;28.73;14.30;;;8.30;63.10;;;;;;5075132;28;20470;-74
2022/03/27 00:38:08;;;;;;;27.10;12.70;;;8.20;63.10;;;;;;5073426;28;20458;-72
2022/03/27 00:40:36;;;;;;;26.67;13.73;;;8.20;63.10;;;;;;5073166;28;20450;-73
2022/03/27 00:43:06;;;;;;;29.63;17.00;;;8.20;63.20;;;;;;5071444;28;20223;-73
2022/03/27 00:45:34;;;;;;;22.80;13.67;;;8.20;63.30;;;;;;5075155;28;20477;-72
2022/03/27 00:48:02;;;;;;;28.15;14.07;;;8.20;63.30;;;;;;5080481;28;20458;-72
2022/03/27 00:50:30;;;;;;;23.10;12.63;;;8.20;63.30;;;;;;5072748;28;20195;-72
2022/03/27 00:52:59;;;;;;;22.00;11.20;;;8.10;63.30;;;;;;5076198;28;20235;-72
2022/03/27 00:55:28;;;;;;;23.27;11.50;;;8.10;63.30;;;;;;5082855;28;20227;-72
2022/03/27 00:57:56;;;;;;;17.63;11.05;;;8.10;63.30;;;;;;5083030;28;20450;-72
2022/03/27 01:00:49;;;;;;;19.57;11.33;;;8.10;63.30;;;;;;5082122;28;20257;-72
2022/03/27 01:03:20;;;;;;;23.90;11.30;;;8.10;63.40;;;;;;5081477;28;20862;-73
2022/03/27 01:05:49;;;;;;;17.85;10.57;;;8.00;63.40;;;;;;5084091;28;20232;-73
2022/03/27 01:09:35;;;;;;;18.17;10.53;;;8.00;63.40;;;;;;5073829;28;20216;-74
2022/03/27 01:11:11;;;;;;;21.50;11.35;;;8.00;63.50;;;;;;5073975;28;20450;-73
2022/03/27 01:13:44;;;;;;;22.93;12.47;;;8.00;63.60;;;;;;5073271;28;20662;-72
2022/03/27 01:16:17;;;;;;;22.98;11.50;;;7.90;63.50;;;;;;5073778;28;21009;-73
2022/03/27 01:18:46;;;;;;;18.80;11.98;;;7.90;63.60;;;;;;5077523;28;20204;-73
2022/03/27 01:21:17;;;;;;;18.65;11.48;;;7.90;63.70;;;;;;5074845;28;20200;-73
2022/03/27 01:23:45;;;;;;;20.48;11.00;;;7.80;63.70;;;;;;5075044;28;20219;-74
2022/03/27 01:26:12;;;;;;;25.30;12.02;;;7.80;63.80;;;;;;5075277;28;20227;-74
2022/03/27 01:28:41;;;;;;;22.13;11.27;;;7.70;63.90;;;;;;5073657;28;20656;-74
2022/03/27 01:31:09;;;;;;;25.88;12.10;;;7.80;64.10;;;;;;5071411;28;20240;-74
2022/03/27 01:33:37;;;;;;;19.65;12.30;;;7.80;64.00;;;;;;5078203;28;20223;-73
2022/03/27 01:36:06;;;;;;;20.90;12.23;;;7.80;64.10;;;;;;5076280;28;20285;-73
2022/03/27 01:38:35;;;;;;;18.70;11.43;;;7.80;64.10;;;;;;5076405;28;20211;-73
2022/03/27 01:41:04;;;;;;;20.77;12.40;;;7.90;64.20;;;;;;5078222;28;20453;-73
2022/03/27 01:43:32;;;;;;;21.23;10.73;;;7.90;64.20;;;;;;5077359;28;20477;-73
2022/03/27 01:46:00;;;;;;;16.93;11.03;;;7.90;64.10;;;;;;5077435;28;20288;-73
2022/03/27 01:48:28;;;;;;;14.95;10.45;;;7.90;64.10;;;;;;5078175;28;20473;-73
2022/03/27 01:51:00;;;;;;;19.08;11.23;;;7.90;64.10;;;;;;5075138;28;20207;-73
2022/03/27 01:53:28;;;;;;;22.95;12.00;;;7.90;63.90;;;;;;5061614;28;20879;-72
2022/03/27 01:55:57;;;;;;;20.52;11.88;;;7.80;63.90;;;;;;5077958;28;20632;-74
2022/03/27 01:58:25;;;;;;;24.63;11.77;;;7.70;63.90;;;;;;5076939;28;20903;-74
2022/03/27 02:00:53;;;;;;;23.93;12.40;;;7.60;63.90;;;;;;5063154;28;20234;-74
2022/03/27 02:03:22;;;;;;;20.48;11.90;;;7.60;64.00;;;;;;5064089;28;20470;-74
2022/03/27 02:05:52;;;;;;;19.50;11.65;;;7.60;64.00;;;;;;5076159;28;20236;-74
2022/03/27 02:08:20;;;;;;;23.27;11.98;;;7.50;64.00;;;;;;5076463;28;20196;-73
2022/03/27 02:10:58;;;;;;;20.50;11.48;;;7.40;64.10;;;;;;5076993;28;20211;-73
2022/03/27 02:13:26;;;;;;;22.10;12.82;;;7.40;64.20;;;;;;5075977;28;20200;-72
2022/03/27 02:15:57;;;;;;;21.58;12.25;;;7.40;64.10;;;;;;5075971;28;20232;-73
2022/03/27 02:18:27;;;;;;;24.42;12.95;;;7.30;64.20;;;;;;5073519;28;20207;-73
2022/03/27 02:20:55;;;;;;;20.52;12.48;;;7.30;64.30;;;;;;5065433;28;20219;-73
2022/03/27 02:23:23;;;;;;;24.30;13.40;;;7.30;64.40;;;;;;5072478;28;20276;-73
2022/03/27 02:25:52;;;;;;;24.40;13.93;;;7.20;64.60;;;;;;5072438;28;20234;-73
2022/03/27 02:28:21;;;;;;;21.02;12.15;;;7.30;64.70;;;;;;5075601;28;20211;-74
2022/03/27 02:30:49;;;;;;;18.55;11.55;;;7.30;64.80;;;;;;5057777;28;21116;-72
2022/03/27 02:33:17;;;;;;;18.25;10.35;;;7.40;64.80;;;;;;5073985;28;20203;-73
2022/03/27 02:35:45;;;;;;;18.55;11.60;;;7.40;64.70;;;;;;5069470;28;20242;-73
2022/03/27 02:38:13;;;;;;;17.90;10.52;;;7.40;64.70;;;;;;5072706;28;20249;-73
2022/03/27 02:40:44;;;;;;;23.65;12.65;;;7.40;64.70;;;;;;5074029;28;20211;-73
2022/03/27 02:43:12;;;;;;;18.52;11.45;;;7.40;64.80;;;;;;5069772;28;20929;-73
2022/03/27 02:45:42;;;;;;;19.08;11.77;;;7.40;64.80;;;;;;5072881;28;20234;-73
2022/03/27 02:48:10;;;;;;;19.30;11.40;;;7.40;64.80;;;;;;5076104;28;20265;-73
2022/03/27 02:50:39;;;;;;;19.67;11.00;;;7.40;64.80;;;;;;5071859;28;20216;-73
2022/03/27 02:53:07;;;;;;;29.25;11.55;;;7.40;64.80;;;;;;5072683;28;20196;-74
2022/03/27 02:55:35;;;;;;;22.65;12.23;;;7.40;64.60;;;;;;5075342;28;20631;-74
2022/03/27 02:58:04;;;;;;;18.75;10.50;;;7.40;64.70;;;;;;5071039;28;20207;-73
2022/03/27 03:00:33;;;;;;;19.45;11.38;;;7.40;64.80;;;;;;5077245;28;20364;-73
2022/03/27 03:03:02;;;;;;;17.90;9.70;;;7.40;64.70;;;;;;5057740;28;20213;-73
2022/03/27 03:05:30;;;;;;;18.73;10.82;;;7.30;64.60;;;;;;5075080;28;20231;-73
2022/03/27 03:08:00;;;;;;;22.17;10.95;;;7.20;64.40;;;;;;5078450;28;20991;-73
2022/03/27 03:10:29;;;;;;;21.42;10.82;;;7.20;64.50;;;;;;5078807;28;20191;-73
2022/03/27 03:12:58;;;;;;;20.52;10.57;;;7.10;64.70;;;;;;5073088;28;20575;-73
2022/03/27 03:15:26;;;;;;;21.05;10.90;;;7.10;64.70;;;;;;5078440;28;20250;-73
2022/03/27 03:17:54;;;;;;;24.20;10.10;;;7.00;64.70;;;;;;5078372;28;20227;-73
2022/03/27 03:20:25;;;;;;;16.52;10.00;;;7.00;64.70;;;;;;5078224;28;20210;-74
2022/03/27 03:22:53;;;;;;;18.88;11.20;;;6.90;64.80;;;;;;5075792;28;20567;-74
2022/03/27 03:25:21;;;;;;;17.58;10.40;;;6.90;64.70;;;;;;5055702;28;20816;-73
2022/03/27 03:27:49;;;;;;;17.85;10.20;;;6.80;64.80;;;;;;5079475;28;20212;-74
2022/03/27 03:30:17;;;;;;;16.35;10.48;;;6.80;64.90;;;;;;5079050;28;20206;-72
2022/03/27 03:32:45;;;;;;;20.00;10.07;;;6.80;65.00;;;;;;5075589;28;20196;-74
2022/03/27 03:35:13;;;;;;;22.77;10.93;;;6.70;65.10;;;;;;5058825;28;20272;-74
2022/03/27 03:38:02;;;;;;;21.20;10.38;;;6.70;65.00;;;;;;5077698;28;20751;-74
2022/03/27 03:40:30;;;;;;;15.55;10.52;;;6.60;65.20;;;;;;5075761;28;20874;-74
2022/03/27 03:42:59;;;;;;;16.40;10.00;;;6.60;65.30;;;;;;5077109;28;20215;-74
2022/03/27 03:45:26;;;;;;;18.35;11.18;;;6.70;65.40;;;;;;5078874;28;20231;-73
2022/03/27 03:47:54;;;;;;;20.88;12.27;;;6.70;65.50;;;;;;5080454;28;20208;-73
2022/03/27 03:50:22;;;;;;;20.30;9.85;;;6.70;65.50;;;;;;5080157;28;20211;-73
2022/03/27 03:52:50;;;;;;;17.52;9.80;;;6.70;65.40;;;;;;5079438;28;20200;-73
2022/03/27 03:55:20;;;;;;;20.27;11.15;;;6.70;65.50;;;;;;5060815;28;20945;-74
2022/03/27 03:57:48;;;;;;;17.15;10.65;;;6.70;65.40;;;;;;5078555;28;20207;-73
2022/03/27 04:00:16;;;;;;;19.85;9.90;;;6.70;65.60;;;;;;5080857;28;20202;-73
2022/03/27 04:02:45;;;;;;;16.08;9.93;;;6.70;65.60;;;;;;5082840;28;20250;-73
2022/03/27 04:05:13;;;;;;;18.98;9.93;;;6.80;65.60;;;;;;5082845;28;20235;-73
2022/03/27 04:07:41;;;;;;;21.42;10.52;;;6.80;65.60;;;;;;5081324;28;20664;-74
2022/03/27 04:10:10;;;;;;;17.50;10.27;;;6.80;65.60;;;;;;5080332;28;20211;-73
2022/03/27 04:12:39;;;;;;;17.02;10.20;;;6.70;65.40;;;;;;5077985;28;20196;-73
2022/03/27 04:15:08;;;;;;;19.08;10.18;;;6.70;65.40;;;;;;5062654;28;20219;-73
2022/03/27 04:17:44;;;;;;;17.40;11.25;;;6.60;65.40;;;;;;5081837;28;20256;-74
2022/03/27 04:20:12;;;;;;;17.58;10.48;;;6.60;65.40;;;;;;5076703;28;20211;-73
2022/03/27 04:22:40;;;;;;;14.23;9.48;;;6.50;65.50;;;;;;5061963;28;20213;-74
2022/03/27 04:25:10;;;;;;;19.95;11.25;;;6.50;65.50;;;;;;5075045;28;20231;-73
2022/03/27 04:27:39;;;;;;;17.73;10.32;;;6.50;65.50;;;;;;5059977;28;20199;-74
2022/03/27 04:30:10;;;;;;;18.27;10.35;;;6.40;65.60;;;;;;5075929;28;20822;-73
2022/03/27 04:32:39;;;;;;;18.73;10.73;;;6.40;65.60;;;;;;5075757;28;20253;-74
2022/03/27 04:35:10;;;;;;;17.27;10.88;;;6.40;65.80;;;;;;5059978;22;20271;-73
2022/03/27 04:37:39;;;;;;;21.70;11.45;;;6.40;65.80;;;;;;5033210;28;20234;-74
2022/03/27 04:40:08;;;;;;;18.20;11.77;;;6.40;65.90;;;;;;5032422;28;20204;-73
2022/03/27 04:42:35;;;;;;;22.00;11.13;;;6.40;66.00;;;;;;5032750;28;20205;-74
2022/03/27 04:45:05;;;;;;;18.85;10.65;;;6.40;66.00;;;;;;5037055;28;20734;-73
2022/03/27 04:47:35;;;;;;;17.23;10.30;;;6.40;66.00;;;;;;5020940;28;20229;-73
2022/03/27 04:50:04;;;;;;;17.20;10.90;;;6.40;66.10;;;;;;5021090;28;20278;-74
2022/03/27 04:52:32;;;;;;;19.25;11.02;;;6.40;66.10;;;;;;5037810;28;20236;-73
2022/03/27 04:55:00;;;;;;;19.70;11.95;;;6.40;66.10;;;;;;5033733;28;20298;-73
2022/03/27 04:57:33;;;;;;;17.05;10.82;;;6.40;66.20;;;;;;5025120;28;20255;-73
2022/03/27 05:00:01;;;;;;;20.38;11.80;;;6.40;66.30;;;;;;5036191;28;20259;-73
2022/03/27 05:02:31;;;;;;;18.77;10.85;;;6.50;66.20;;;;;;5033462;28;20232;-73
2022/03/27 05:04:59;;;;;;;18.02;11.18;;;6.50;66.10;;;;;;5035540;28;20819;-73
2022/03/27 05:07:27;;;;;;;17.92;10.50;;;6.50;66.20;;;;;;5033503;28;20208;-73
2022/03/27 05:09:55;;;;;;;25.08;10.93;;;6.50;66.10;;;;;;5034011;28;20202;-72
2022/03/27 05:12:23;;;;;;;20.73;11.02;;;6.40;66.10;;;;;;5036283;28;20212;-73
2022/03/27 05:14:52;;;;;;;21.98;10.95;;;6.40;66.10;;;;;;5035669;28;20791;-73
2022/03/27 05:17:19;;;;;;;17.75;10.85;;;6.40;66.20;;;;;;5033403;28;20233;-73
2022/03/27 05:19:49;;;;;;;16.85;10.88;;;6.30;66.20;;;;;;5038534;28;20205;-73
2022/03/27 05:22:17;;;;;;;17.23;10.73;;;6.30;66.20;;;;;;5035602;28;20205;-73
2022/03/27 05:24:46;;;;;;;16.60;10.95;;;6.30;66.20;;;;;;5037382;28;20240;-73
2022/03/27 05:27:17;;;;;;;20.13;12.35;;;6.30;66.20;;;;;;5035630;28;20228;-73
2022/03/27 05:29:46;;;;;;;18.15;9.75;;;6.30;66.30;;;;;;5025818;28;20285;-72
2022/03/27 05:32:14;;;;;;;16.83;10.88;;;6.30;66.30;;;;;;5035582;28;20284;-73
2022/03/27 05:34:42;;;;;;;18.70;11.48;;;6.30;66.40;;;;;;5035982;28;20237;-72
2022/03/27 05:37:11;;;;;;;17.33;11.52;;;6.20;66.40;;;;;;5034746;28;20568;-72
2022/03/27 05:39:39;;;;;;;20.92;11.90;;;6.30;66.50;;;;;;5033725;28;20212;-73
2022/03/27 05:42:08;;;;;;;19.23;12.07;;;6.30;66.60;;;;;;5034154;28;20259;-73
2022/03/27 05:44:36;;;;;;;17.45;10.25;;;6.30;66.70;;;;;;5034912;28;20240;-73
2022/03/27 05:47:04;;;;;;;20.95;13.18;;;6.40;66.60;;;;;;5034574;28;20244;-73
2022/03/27 05:49:32;;;;;;;23.05;13.68;;;6.30;66.60;;;;;;5035831;28;20612;-73
2022/03/27 05:52:00;;;;;;;20.40;11.85;;;6.30;66.70;;;;;;5018036;28;20192;-73
2022/03/27 05:54:29;;;;;;;27.17;14.18;;;6.30;66.70;;;;;;5035525;28;20755;-73
2022/03/27 05:56:58;;;;;;;27.00;16.17;;;6.40;66.70;;;;;;5016185;28;20217;-73
2022/03/27 05:59:26;;;;;;;22.27;16.45;;;6.40;66.70;;;;;;5034047;28;20205;-73
2022/03/27 06:01:54;;;;;;;24.83;16.60;;;6.40;66.60;;;;;;5033646;28;20652;-73
2022/03/27 06:04:22;;;;;;;98.15;51.67;;;6.40;66.70;;;;;;5020976;28;20225;-72
2022/03/27 06:06:50;;;;;;;29.80;18.50;;;6.40;66.80;;;;;;5036333;28;20606;-74
2022/03/27 06:09:21;;;;;;;27.52;17.55;;;6.40;66.80;;;;;;5036149;28;20192;-73
2022/03/27 06:11:51;;;;;;;25.35;17.05;;;6.50;66.90;;;;;;5035617;28;20208;-73
2022/03/27 06:14:19;;;;;;;25.80;16.83;;;6.50;67.20;;;;;;5035593;28;20266;-74
2022/03/27 06:16:47;;;;;;;27.23;18.00;;;6.60;67.20;;;;;;5036768;28;20228;-74
2022/03/27 06:19:16;;;;;;;31.38;17.70;;;6.60;67.20;;;;;;5020971;28;20283;-73
2022/03/27 06:21:45;;;;;;;23.95;14.20;;;6.70;67.20;;;;;;5040663;28;20232;-73
2022/03/27 06:24:13;;;;;;;25.25;14.63;;;6.80;67.40;;;;;;5036416;28;20208;-73
2022/03/27 06:26:42;;;;;;;21.70;14.65;;;6.80;67.40;;;;;;5034600;28;20935;-72
2022/03/27 06:29:14;;;;;;;29.55;14.13;;;6.90;67.30;;;;;;5036731;28;20267;-74
2022/03/27 06:31:42;;;;;;;23.83;15.57;;;6.90;67.50;;;;;;5031257;28;20287;-74
2022/03/27 06:34:10;;;;;;;22.15;14.50;;;7.00;67.50;;;;;;5037033;28;20782;-73
2022/03/27 06:36:37;;;;;;;20.65;13.80;;;7.00;67.60;;;;;;5036213;28;20209;-72
2022/03/27 06:39:06;;;;;;;21.00;14.20;;;7.10;67.60;;;;;;5036666;28;20209;-74
2022/03/27 06:41:34;;;;;;;22.20;14.30;;;7.20;67.60;;;;;;5021177;28;20204;-73
2022/03/27 06:44:02;;;;;;;21.52;14.15;;;7.20;67.60;;;;;;5040380;28;20258;-74
2022/03/27 06:46:31;;;;;;;22.75;15.57;;;7.40;67.70;;;;;;5035073;28;20228;-73
2022/03/27 06:49:00;;;;;;;21.65;13.82;;;7.40;67.80;;;;;;5039544;28;20216;-73
2022/03/27 06:51:27;;;;;;;25.43;15.27;;;7.50;67.80;;;;;;5023357;28;20213;-74
2022/03/27 06:53:55;;;;;;;25.88;15.05;;;7.60;67.80;;;;;;5040240;28;20463;-74
2022/03/27 06:56:23;;;;;;;21.95;13.88;;;7.70;67.90;;;;;;5037481;28;20204;-73
2022/03/27 06:58:51;;;;;;;25.00;14.03;;;7.80;67.90;;;;;;5037707;28;20212;-73
2022/03/27 07:04:06;;;;;;;21.23;14.43;;;8.00;68.00;;;;;;5040350;28;20200;-74
2022/03/27 07:06:34;;;;;;;24.83;16.07;;;8.00;68.10;;;;;;5044817;28;20205;-74
2022/03/27 07:09:04;;;;;;;24.23;16.48;;;8.10;68.20;;;;;;5024791;28;20455;-74
2022/03/27 07:11:31;;;;;;;24.87;16.60;;;8.20;68.20;;;;;;5043911;28;20205;-74
2022/03/27 07:13:59;;;;;;;23.05;14.70;;;8.20;68.30;;;;;;5035459;28;20469;-74
2022/03/27 07:16:27;;;;;;;24.53;16.20;;;8.30;68.40;;;;;;5035065;28;20229;-74
2022/03/27 07:18:55;;;;;;;22.90;15.80;;;8.40;68.60;;;;;;5038369;28;20604;-73
2022/03/27 07:21:30;;;;;;;27.10;15.80;;;8.50;68.60;;;;;;5038783;28;20451;-73
2022/03/27 07:23:59;;;;;;;23.47;15.10;;;8.60;68.80;;;;;;5038099;28;20462;-73
2022/03/27 07:26:27;;;;;;;29.53;16.40;;;8.60;68.90;;;;;;5037861;28;20490;-73
2022/03/27 07:28:55;;;;;;;26.73;16.70;;;8.80;69.10;;;;;;5036745;28;20464;-73
2022/03/27 07:31:23;;;;;;;25.37;15.10;;;8.80;69.20;;;;;;5036995;28;20484;-73
2022/03/27 07:33:52;;;;;;;31.00;17.87;;;8.90;69.40;;;;;;5041212;28;20497;-73
2022/03/27 07:36:24;;;;;;;28.80;18.43;;;9.00;69.60;;;;;;5037655;28;21225;-73
2022/03/27 07:38:53;;;;;;;26.97;18.33;;;9.10;69.70;;;;;;5038914;28;20463;-73
2022/03/27 07:41:21;;;;;;;30.10;19.60;;;9.20;69.90;;;;;;5039986;28;20467;-74
2022/03/27 07:43:49;;;;;;;33.50;20.83;;;9.30;69.90;;;;;;5020121;28;20457;-74
2022/03/27 07:46:17;;;;;;;34.23;20.53;;;9.40;70.10;;;;;;5039225;28;21077;-74
2022/03/27 07:48:45;;;;;;;29.17;18.83;;;9.60;70.20;;;;;;5038291;28;20462;-74
2022/03/27 07:51:13;;;;;;;32.07;19.93;;;9.60;70.30;;;;;;5037616;28;20478;-74
2022/03/27 07:53:41;;;;;;;37.67;18.87;;;9.70;70.40;;;;;;5037070;28;20861;-74
2022/03/27 07:56:10;;;;;;;30.07;19.90;;;9.80;70.50;;;;;;5035053;28;20471;-75
2022/03/27 07:58:44;;;;;;;33.77;19.20;;;9.90;70.50;;;;;;5036334;28;20522;-74
2022/03/27 08:01:12;;;;;;;32.50;18.57;;;10.10;70.60;;;;;;5042100;28;20479;-74
2022/03/27 08:03:40;;;;;;;30.90;17.97;;;10.10;70.70;;;;;;5039834;28;20468;-74
2022/03/27 08:06:09;;;;;;;31.27;18.40;;;10.20;71.00;;;;;;5036033;28;20476;-75
2022/03/27 08:08:37;;;;;;;28.63;18.93;;;10.40;71.10;;;;;;5037161;28;20460;-75
2022/03/27 08:11:06;;;;;;;29.03;18.80;;;10.50;71.50;;;;;;5037216;28;20473;-74
2022/03/27 08:13:36;;;;;;;27.70;17.93;;;10.60;71.70;;;;;;5038261;28;20513;-74
2022/03/27 08:16:04;;;;;;;26.27;17.37;;;10.80;73.00;;;;;;5039407;28;20476;-73
2022/03/27 08:18:33;;;;;;;27.90;18.20;;;10.90;72.60;;;;;;5037066;28;20545;-75
2022/03/27 08:21:01;;;;;;;30.80;17.63;;;11.10;72.40;;;;;;5043616;28;20460;-74
2022/03/27 08:23:29;;;;;;;31.10;18.80;;;11.20;72.20;;;;;;5036739;28;20984;-74
2022/03/27 08:28:43;;;;;;;33.60;18.17;;;11.40;72.80;;;;;;4991956;28;20747;-74
2022/03/27 08:31:11;;;;;;;33.10;19.00;;;11.60;72.20;;;;;;5033631;28;20471;-74
2022/03/27 08:33:39;;;;;;;31.23;18.43;;;11.70;72.50;;;;;;5034765;28;20450;-74
2022/03/27 08:36:07;;;;;;;27.53;19.40;;;11.80;72.30;;;;;;5021095;28;20541;-74
2022/03/27 08:38:36;;;;;;;38.13;20.27;;;11.80;72.20;;;;;;5019598;28;20538;-74
2022/03/27 08:41:04;;;;;;;32.83;20.07;;;11.90;72.20;;;;;;5039018;28;20525;-74
2022/03/27 08:43:33;;;;;;;43.43;31.80;;;12.00;72.20;;;;;;5036398;28;20576;-74
2022/03/27 08:46:04;;;;;;;28.87;19.50;;;12.00;72.40;;;;;;5031474;28;20499;-74
2022/03/27 08:48:36;;;;;;;35.67;20.87;;;12.10;72.40;;;;;;5036613;28;20528;-76
2022/03/27 08:51:09;;;;;;;30.97;21.60;;;12.20;72.30;;;;;;5037520;28;20458;-73
2022/03/27 08:53:46;;;;;;;35.23;21.97;;;12.30;72.50;;;;;;5035159;28;20473;-74
2022/03/27 08:56:16;;;;;;;34.73;23.37;;;12.40;72.60;;;;;;5035871;28;20546;-74
2022/03/27 08:58:44;;;;;;;35.53;21.30;;;12.50;72.40;;;;;;5017421;28;20961;-74
2022/03/27 09:01:14;;;;;;;35.73;20.27;;;12.60;72.40;;;;;;5036446;28;20486;-75
2022/03/27 09:03:42;;;;;;;33.67;22.03;;;12.60;72.50;;;;;;5034061;28;20834;-75
2022/03/27 09:06:10;;;;;;;33.70;23.13;;;12.70;72.50;;;;;;5038044;28;20479;-74
2022/03/27 09:08:38;;;;;;;36.93;22.07;;;12.80;72.60;;;;;;5035514;28;20468;-75
2022/03/27 09:11:07;;;;;;;34.60;22.17;;;12.90;72.50;;;;;;5032988;28;20539;-72
2022/03/27 09:13:35;;;;;;;32.90;22.00;;;13.00;72.50;;;;;;5035706;28;20455;-74
2022/03/27 09:16:05;;;;;;;36.60;21.87;;;13.10;72.40;;;;;;5036371;28;20481;-75
2022/03/27 09:18:47;;;;;;;36.40;23.50;;;13.10;72.40;;;;;;5017519;28;21182;-74
2022/03/27 09:21:17;;;;;;;34.30;22.63;;;13.20;72.40;;;;;;5036156;28;20454;-75
2022/03/27 09:23:51;;;;;;;37.20;23.80;;;13.30;72.40;;;;;;5031772;28;20471;-75
2022/03/27 09:26:20;;;;;;;35.27;24.17;;;13.40;72.30;;;;;;5032293;28;20482;-75
2022/03/27 09:28:49;;;;;;;37.53;23.77;;;13.40;72.30;;;;;;5033407;28;20455;-73
2022/03/27 09:31:23;;;;;;;37.57;23.43;;;13.50;72.20;;;;;;5034440;28;20533;-73
2022/03/27 09:33:53;;;;;;;37.13;23.60;;;13.50;72.20;;;;;;5022342;28;20498;-72
2022/03/27 09:36:24;;;;;;;40.70;23.93;;;13.60;72.10;;;;;;5038849;28;20463;-72
2022/03/27 09:39:07;;;;;;;40.43;22.33;;;13.70;72.00;;;;;;5036536;28;21192;-72
2022/03/27 09:41:42;;;;;;;32.50;22.13;;;13.70;72.00;;;;;;5035497;28;20453;-72
2022/03/27 09:44:12;;;;;;;33.87;21.30;;;13.80;71.80;;;;;;5037052;28;20458;-72
2022/03/27 09:46:52;;;;;;;32.60;22.07;;;13.90;71.80;;;;;;5035757;28;20995;-73
2022/03/27 09:49:25;;;;;;;42.57;25.47;;;13.90;71.80;;;;;;5041926;28;20442;-73
2022/03/27 09:51:59;;;;;;;37.90;24.10;;;14.00;71.70;;;;;;5034502;28;21259;-73
2022/03/27 09:54:29;;;;;;;39.63;26.53;;;14.10;71.70;;;;;;5041950;28;20488;-72
2022/03/27 09:56:57;;;;;;;35.77;24.77;;;14.20;71.50;;;;;;5041280;28;20466;-72
2022/03/27 09:59:30;;;;;;;36.53;21.80;;;14.20;71.20;;;;;;5040735;28;20975;-74
2022/03/27 10:02:18;;;;;;;35.50;24.17;;;14.30;71.10;;;;;;5027930;28;20835;-73
2022/03/27 10:04:59;;;;;;;34.10;23.03;;;14.30;71.10;;;;;;5038431;28;20566;-71
2022/03/27 10:07:34;;;;;;;33.77;22.50;;;14.40;71.00;;;;;;5038800;28;20476;-74
2022/03/27 10:10:04;;;;;;;33.70;20.50;;;14.40;70.80;;;;;;5034504;28;20483;-73
2022/03/27 10:12:34;;;;;;;37.57;23.80;;;14.50;70.80;;;;;;5036610;28;20820;-73
2022/03/27 10:15:05;;;;;;;32.47;22.07;;;14.50;70.70;;;;;;5042249;28;21091;-73
2022/03/27 10:17:36;;;;;;;32.33;21.10;;;14.60;70.60;;;;;;5042565;28;20482;-74
2022/03/27 10:20:09;;;;;;;34.47;22.53;;;14.60;70.60;;;;;;5043378;28;20466;-74
2022/03/27 10:22:39;;;;;;;28.90;18.67;;;14.70;70.40;;;;;;5043179;28;21090;-74
2022/03/27 10:25:10;;;;;;;35.20;23.07;;;14.70;70.20;;;;;;5023756;28;20475;-74
2022/03/27 10:27:39;;;;;;;31.20;20.50;;;14.80;70.20;;;;;;5032404;28;20474;-74
2022/03/27 10:30:10;;;;;;;37.20;25.50;;;14.80;70.10;;;;;;5023911;28;20481;-75
2022/03/27 10:32:40;;;;;;;35.10;21.03;;;14.90;70.00;;;;;;5038687;28;20532;-74
2022/03/27 10:35:29;;;;;;;32.40;19.53;;;15.00;69.90;;;;;;5039286;28;20890;-74
2022/03/27 10:38:07;;;;;;;38.47;23.17;;;15.10;69.80;;;;;;5042418;28;21083;-74
2022/03/27 10:40:48;;;;;;;32.17;23.60;;;15.10;69.60;;;;;;5043803;28;21190;-75
2022/03/27 10:43:26;;;;;;;31.60;20.70;;;15.20;69.40;;;;;;5046416;28;20450;-74
2022/03/27 10:46:15;;;;;;;29.67;19.60;;;15.30;69.30;;;;;;5048723;28;20490;-74
2022/03/27 10:48:45;;;;;;;31.83;19.30;;;15.30;68.90;;;;;;5024903;28;20495;-75
2022/03/27 10:51:37;;;;;;;33.30;21.43;;;15.30;68.70;;;;;;5041115;28;20464;-74
2022/03/27 10:54:07;;;;;;;25.83;16.87;;;15.30;68.20;;;;;;5046718;28;20451;-74
2022/03/27 10:56:37;;;;;;;29.13;17.50;;;15.40;68.40;;;;;;5042652;28;21542;-74
2022/03/27 10:59:17;;;;;;;27.40;17.83;;;15.40;68.30;;;;;;5024875;28;20456;-73
2022/03/27 11:01:47;;;;;;;39.27;20.57;;;15.40;68.10;;;;;;5039770;28;20474;-73
2022/03/27 11:04:16;;;;;;;26.10;18.20;;;15.40;68.10;;;;;;5041796;28;20818;-75
2022/03/27 11:06:47;;;;;;;28.30;17.63;;;15.40;67.90;;;;;;5039796;28;20497;-74
2022/03/27 11:09:33;;;;;;;27.63;18.00;;;15.40;67.80;;;;;;5041359;28;20496;-75
2022/03/27 11:12:08;;;;;;;25.70;16.40;;;15.50;67.80;;;;;;5049269;28;20462;-73
2022/03/27 11:15:03;;;;;;;29.93;18.00;;;15.50;67.70;;;;;;5039498;28;20508;-74
2022/03/27 11:17:52;;;;;;;23.77;16.10;;;15.60;67.50;;;;;;5039018;28;20502;-74
2022/03/27 11:20:57;;;;;;;28.20;17.03;;;15.60;67.40;;;;;;5041894;28;20458;-74
2022/03/27 11:23:36;;;;;;;30.67;16.93;;;15.60;67.40;;;;;;5037992;28;20461;-74
2022/03/27 11:26:05;;;;;;;25.60;16.70;;;15.70;67.20;;;;;;5039601;28;20482;-74
2022/03/27 11:28:49;;;;;;;26.20;17.30;;;15.70;67.20;;;;;;5040584;28;20489;-73
2022/03/27 11:31:29;;;;;;;26.23;17.73;;;15.70;67.10;;;;;;5038002;28;20484;-74
2022/03/27 11:34:18;;;;;;;25.27;17.93;;;15.80;66.90;;;;;;5041035;28;20466;-73
2022/03/27 11:36:49;;;;;;;25.13;15.63;;;15.80;66.60;;;;;;5022995;28;21019;-72
2022/03/27 11:39:37;;;;;;;22.50;14.70;;;15.80;66.80;;;;;;5035868;28;20518;-75
2022/03/27 11:42:38;;;;;;;21.60;14.80;;;15.90;66.60;;;;;;5035772;28;20451;-73
2022/03/27 11:45:16;;;;;;;23.57;13.70;;;16.00;66.50;;;;;;5035925;28;20993;-73
2022/03/27 11:47:46;;;;;;;21.40;14.40;;;16.10;66.40;;;;;;5037445;28;20572;-74
2022/03/27 11:50:23;;;;;;;20.50;14.07;;;16.20;66.10;;;;;;5039321;28;20975;-74
2022/03/27 11:52:52;;;;;;;27.73;15.30;;;16.20;66.00;;;;;;5038046;28;20491;-74
2022/03/27 11:55:21;;;;;;;23.40;14.10;;;16.30;66.10;;;;;;5040261;28;20557;-75
2022/03/27 11:57:51;;;;;;;21.57;13.13;;;16.30;66.00;;;;;;5040188;28;20459;-75
2022/03/27 12:00:31;;;;;;;24.00;14.10;;;16.30;65.90;;;;;;5036472;28;20463;-75
2022/03/27 12:02:59;;;;;;;19.17;12.43;;;16.40;66.00;;;;;;5039363;28;20773;-74
2022/03/27 12:05:38;;;;;;;20.93;13.80;;;16.40;66.00;;;;;;5038861;28;21167;-75
2022/03/27 12:08:07;;;;;;;18.53;11.93;;;16.50;65.30;;;;;;5028006;28;21004;-75
2022/03/27 12:10:41;;;;;;;19.20;13.10;;;16.50;65.10;;;;;;5038580;28;21014;-74
2022/03/27 12:13:11;;;;;;;19.57;12.10;;;16.50;64.90;;;;;;5038349;28;20536;-74
2022/03/27 12:15:46;;;;;;;18.50;11.70;;;16.60;64.80;;;;;;5034518;28;20517;-74
2022/03/27 12:18:15;;;;;;;17.90;10.60;;;16.60;64.60;;;;;;5042204;28;20524;-74
2022/03/27 12:20:48;;;;;;;22.00;12.50;;;16.60;64.40;;;;;;5045568;28;20456;-74
2022/03/27 12:23:21;;;;;;;16.90;11.30;;;16.70;64.30;;;;;;5046995;28;20495;-74
2022/03/27 12:31:59;;;;;;;17.47;10.73;;;16.80;63.70;;;;;;5039274;28;21035;-74
2022/03/27 12:34:27;;;;;;;17.97;9.70;;;16.70;63.50;;;;;;5038868;28;20486;-74
2022/03/27 12:37:10;;;;;;;18.03;10.30;;;16.80;63.50;;;;;;5036264;28;20444;-74
2022/03/27 12:39:40;;;;;;;16.00;9.93;;;16.80;63.30;;;;;;5041232;28;20448;-74
2022/03/27 12:42:35;;;;;;;17.00;9.70;;;16.80;63.20;;;;;;5039960;28;20540;-74
2022/03/27 12:45:07;;;;;;;18.83;10.70;;;16.80;63.10;;;;;;5038250;28;20522;-75
2022/03/27 12:47:37;;;;;;;21.00;11.53;;;16.80;63.20;;;;;;5038269;28;21172;-75
2022/03/27 12:50:06;;;;;;;16.27;10.30;;;16.90;63.00;;;;;;5037163;28;20459;-74
2022/03/27 12:52:54;;;;;;;15.77;9.20;;;16.90;63.00;;;;;;5035932;28;20538;-75
2022/03/27 12:55:25;;;;;;;17.97;10.10;;;17.00;62.60;;;;;;5036033;28;20474;-75
2022/03/27 12:57:57;;;;;;;17.07;11.33;;;17.10;62.60;;;;;;5035799;28;20459;-75
2022/03/27 13:00:28;;;;;;;16.87;10.47;;;17.10;62.40;;;;;;5037954;28;21231;-75
2022/03/27 13:03:18;;;;;;;16.17;9.80;;;17.20;62.20;;;;;;5036417;28;20452;-74
2022/03/27 13:06:01;;;;;;;17.60;9.40;;;17.20;62.20;;;;;;5035409;28;21062;-75